Terminal Aerodrome Forecast
Issued by NWS Austin/San Antonio, TX

Home | Current Version | Previous Version | Text Only | Print | Product List | Glossary On
Versions: 1 2 3 4 5 6 7 8 9 10 11 12 13 14 15 16 17 18 19 20 21
000
FTUS44 KEWX 301947 AAA
TAFDRT
TAF AMD
KDRT 301947Z 3020/0118 13010KT P6SM VCTS SCT050CB BKN250
     FM010200 11007KT P6SM FEW050 SCT250
     FM011000 11007KT P6SM BKN025
     FM011300 12006KT P6SM BKN010
     FM011600 12007KT P6SM BKN016=

USA.gov is the U.S. government's official web portal to all federal, state and local government web resources and services.